KAFW/AFW METAR and TAF weather

Enter ICAO airport designator
Station Type Date Time Source
KAFW METAR 2022/01/26 20:53 UTC NOAA

KAFW 262053Z 17005KT 10SM FEW100 FEW250 08/M12 A3028 RMK AO2 SLP262 T00831122 56036


Station Type Date Time Source
KAFW Decoded METAR 2022/01/26 20:53 UTC NOAA

FORT WORTH ALLIANCE AIRPORT, TX, United States (KAFW) 32-59N 097-19W 233M
Jan 26, 2022 - 03:53 PM EST / 2022.01.26 2053 UTC
Wind: from the S (170 degrees) at 6 MPH (5 KT):0
Visibility: 10 mile(s):0
Sky conditions: mostly clear
Temperature: 46.9 F (8.3 C)
Dew Point: 10.0 F (-12.2 C)
Relative Humidity: 21%
Pressure (altimeter): 30.28 in. Hg (1025 hPa)
Pressure tendency: 0.11 inches (3.6 hPa) lower than three hours ago
ob: KAFW 262053Z 17005KT 10SM FEW100 FEW250 08/M12 A3028 RMK AO2 SLP262 T00831122 56036
cycle: 21

Station Type Date Time Source
KAFW TAF 2022/01/26 21:58 UTC NOAA

TAF
AMD KAFW 262057Z 2621/2718 08008KT P6SM FEW250
FM262300 05006KT P6SM OVC120
FM270400 VRB03KT P6SM VCSH BKN070 OVC100
FM270600 VRB02KT P6SM BKN050
FM271400 19005KT P6SM BKN050

Example: see airport list